Cayce, Kentucky
Current Conditions -  °F | °C
As of 2:55 AM on Sunday 26 Oct 2014 (Local Time) from KUCY Reporting Station
Overcast Overcast  
Wind Chill: 54°   Ceiling: 100
Heat Index: 54°   Visibility: 0.5mi
Dew Point: 54°   Wind: 0mph
Humidity: 100%   Direction: NA
Pressure: 29.99"   Gusts: NA
Location:  36.5506°N, 88.9261°W
Report Text: KUCY 260755Z AUTO 00000KT 1/2SM OVC001 12/12 A2999 RMK
Loading
Personal Weather Stations






























Interactive Weather Map
Tropical Storm Tracking
New forecast layout! Learn more

10-Day Weather Forecast

Advertisements
Track Severe Weather on mobile